Time;durP1;ratioP1;P1;durP2;ratioP2;P2;SDS_P1;SDS_P2;PMS_P1;PMS_P2;Temp;Humidity;BMP_temperature;BMP_pressure;BME280_temperature;BME280_humidity;BME280_pressure;Samples;Min_cycle;Max_cycle;Signal;HPM_P1;HPM_P2
2021/09/11 00:01:02;;;;;;;14.53;11.00;;;;;;;15.50;96.66;100168.38;4937581;29;20062;-61
2021/09/11 00:03:47;;;;;;;13.60;9.90;;;;;;;15.39;95.81;100170.63;4937327;29;20144;-65
2021/09/11 00:06:31;;;;;;;11.32;7.88;;;;;;;15.29;95.48;100167.34;4937249;29;20070;-65
2021/09/11 00:09:18;;;;;;;10.73;7.90;;;;;;;15.25;95.81;100174.09;4937535;29;20062;-61
2021/09/11 00:12:04;;;;;;;13.25;8.40;;;;;;;15.19;95.52;100172.94;4937259;29;20054;-65
2021/09/11 00:14:49;;;;;;;10.63;7.50;;;;;;;15.17;95.63;100181.25;4937804;29;20107;-63
2021/09/11 00:17:34;;;;;;;13.20;9.43;;;;;;;15.18;96.01;100179.38;4936850;29;20062;-62
2021/09/11 00:20:19;;;;;;;20.50;11.73;;;;;;;15.24;96.29;100170.56;4937269;29;20083;-66
2021/09/11 00:23:09;;;;;;;17.75;9.88;;;;;;;15.29;96.32;100181.69;4937000;29;20270;-64
2021/09/11 00:25:59;;;;;;;15.25;10.63;;;;;;;15.37;96.16;100181.63;4936877;29;20062;-65
2021/09/11 00:28:44;;;;;;;17.50;12.15;;;;;;;15.40;96.60;100178.59;4936768;29;20059;-61
2021/09/11 00:31:29;;;;;;;12.07;9.95;;;;;;;15.42;96.38;100173.00;4937526;29;20290;-66
2021/09/11 00:34:13;;;;;;;12.35;8.88;;;;;;;15.35;96.27;100172.88;4937173;29;20063;-65
2021/09/11 00:36:59;;;;;;;11.23;8.88;;;;;;;15.36;96.36;100179.13;4936067;29;20410;-63
2021/09/11 00:39:43;;;;;;;12.15;8.02;;;;;;;15.30;96.62;100171.72;4937182;29;20517;-64
2021/09/11 00:42:30;;;;;;;15.38;11.10;;;;;;;15.22;96.14;100172.59;4936527;29;20099;-65
2021/09/11 00:45:15;;;;;;;14.63;10.13;;;;;;;15.25;96.35;100180.34;4936518;29;20058;-62
2021/09/11 00:48:00;;;;;;;11.52;8.48;;;;;;;15.18;96.17;100174.81;4936394;29;20203;-66
2021/09/11 00:50:46;;;;;;;15.03;10.53;;;;;;;15.12;96.34;100175.50;4936948;29;20274;-65
2021/09/11 00:53:32;;;;;;;12.55;9.35;;;;;;;15.14;96.68;100184.28;4936525;29;20085;-64
2021/09/11 00:56:17;;;;;;;;;;;;;;;15.10;96.85;100176.69;4936717;29;20628;-65
2021/09/11 00:59:03;;;;;;;12.38;8.80;;;;;;;15.04;96.75;100178.25;4936345;29;20037;-65
2021/09/11 01:01:49;;;;;;;15.40;9.52;;;;;;;15.10;97.18;100180.25;4936304;29;20058;-65
2021/09/11 01:04:34;;;;;;;11.85;8.82;;;;;;;15.07;96.90;100177.06;4934793;29;20059;-65
2021/09/11 01:07:19;;;;;;;15.52;11.50;;;;;;;15.00;96.43;100179.59;4935430;29;20074;-59
2021/09/11 01:10:06;;;;;;;17.92;10.82;;;;;;;14.97;97.07;100184.53;4949532;29;20162;-62
2021/09/11 01:12:51;;;;;;;11.18;8.80;;;;;;;14.95;96.96;100183.84;4955142;29;20062;-61
2021/09/11 01:15:39;;;;;;;10.20;7.70;;;;;;;14.91;96.95;100189.59;4955162;29;20058;-60
2021/09/11 01:18:25;;;;;;;11.95;8.85;;;;;;;14.95;97.32;100183.84;4955357;29;20077;-58
2021/09/11 01:21:10;;;;;;;14.43;10.88;;;;;;;14.94;97.70;100191.13;4954949;29;20137;-59
2021/09/11 01:23:56;;;;;;;18.85;13.00;;;;;;;14.99;97.82;100190.59;4955158;29;20473;-57
2021/09/11 01:26:42;;;;;;;17.90;12.05;;;;;;;15.03;98.00;100191.91;4954551;29;20191;-61
2021/09/11 01:29:27;;;;;;;14.25;10.00;;;;;;;15.02;97.93;100190.22;4954830;29;20058;-61
2021/09/11 01:32:15;;;;;;;14.07;9.52;;;;;;;14.98;97.85;100188.91;4955160;29;20110;-62
2021/09/11 01:35:00;;;;;;;13.73;9.50;;;;;;;14.97;97.90;100192.63;4954845;29;20063;-60
2021/09/11 01:37:45;;;;;;;13.10;10.40;;;;;;;14.94;97.84;100201.09;4954709;29;20163;-58
2021/09/11 01:40:32;;;;;;;14.85;9.48;;;;;;;14.93;98.04;100204.81;4954655;29;20366;-59
2021/09/11 01:43:26;;;;;;;20.02;13.13;;;;;;;14.85;97.97;100200.25;4954761;29;20065;-61
2021/09/11 01:46:11;;;;;;;17.73;12.63;;;;;;;14.94;98.34;100206.50;4954142;29;20054;-60
2021/09/11 01:48:57;;;;;;;16.88;10.48;;;;;;;14.91;98.31;100200.38;4954679;29;20058;-59
2021/09/11 01:51:45;;;;;;;18.60;10.73;;;;;;;14.95;98.62;100206.31;4954259;29;20187;-58
2021/09/11 01:54:30;;;;;;;12.02;9.25;;;;;;;14.94;98.45;100199.22;4954596;29;20078;-56
2021/09/11 01:57:17;;;;;;;16.15;10.00;;;;;;;14.91;98.39;100203.09;4974953;23;20057;-64
2021/09/11 02:00:04;;;;;;;18.50;12.70;;;;;;;14.87;98.39;100204.47;4973878;28;20054;-64
2021/09/11 02:02:49;;;;;;;19.80;12.60;;;;;;;14.90;99.02;100201.41;4980542;28;20106;-65
2021/09/11 02:05:34;;;;;;;12.43;9.43;;;;;;;14.95;98.96;100200.06;4973779;28;20061;-64
2021/09/11 02:08:19;;;;;;;11.98;8.98;;;;;;;14.98;98.57;100199.72;4973850;28;20057;-63
2021/09/11 02:11:04;;;;;;;11.80;9.45;;;;;;;14.94;98.48;100198.38;4973128;28;20428;-64
2021/09/11 02:13:50;;;;;;;12.55;9.20;;;;;;;14.91;98.35;100195.00;4973531;28;20061;-64
2021/09/11 02:16:36;;;;;;;17.75;11.38;;;;;;;14.90;98.61;100196.00;4972539;28;20065;-64
2021/09/11 02:19:21;;;;;;;13.20;9.57;;;;;;;14.94;98.40;100199.22;4972796;28;20070;-65
2021/09/11 02:22:09;;;;;;;22.87;15.07;;;;;;;15.11;98.55;100205.41;4973413;28;20181;-63
2021/09/11 02:24:54;;;;;;;17.23;12.13;;;;;;;15.27;98.49;100205.34;4973219;28;20185;-64
2021/09/11 02:27:40;;;;;;;14.85;10.82;;;;;;;15.27;96.80;100205.34;4972481;28;20065;-64
2021/09/11 02:30:26;;;;;;;16.33;11.85;;;;;;;15.38;96.98;100204.94;4973140;28;20105;-64
2021/09/11 02:33:11;;;;;;;16.02;11.65;;;;;;;15.50;96.61;100200.84;4972768;28;20102;-64
2021/09/11 02:35:57;;;;;;;13.25;10.57;;;;;;;15.42;96.54;100208.16;4972312;28;20185;-63
2021/09/11 02:38:42;;;;;;;18.83;12.35;;;;;;;15.35;96.47;100202.59;4972657;28;20053;-64
2021/09/11 02:41:27;;;;;;;20.48;14.07;;;;;;;15.37;97.15;100211.38;4973044;28;20058;-65
2021/09/11 02:44:12;;;;;;;24.80;15.52;;;;;;;15.47;97.60;100212.00;4972684;28;20062;-64
2021/09/11 02:46:59;;;;;;;23.13;16.25;;;;;;;15.55;97.40;100211.16;4973116;28;20066;-66
2021/09/11 02:49:44;;;;;;;22.52;15.73;;;;;;;15.72;96.37;100201.09;4972294;28;20229;-64
2021/09/11 02:52:29;;;;;;;20.27;14.63;;;;;;;15.69;96.08;100196.88;4972702;28;20518;-63
2021/09/11 02:55:14;;;;;;;20.10;15.40;;;;;;;15.77;95.66;100206.84;4972613;28;20363;-63
2021/09/11 02:57:59;;;;;;;17.80;13.13;;;;;;;15.62;95.72;100214.00;4972324;28;20165;-65
2021/09/11 03:00:44;;;;;;;12.95;10.05;;;;;;;15.55;96.10;100219.25;4972387;28;20061;-63
2021/09/11 03:03:30;;;;;;;13.65;9.45;;;;;;;15.53;96.26;100212.34;4972629;28;20062;-65
2021/09/11 03:06:15;;;;;;;15.30;11.38;;;;;;;15.63;95.95;100207.59;4971888;28;20428;-63
2021/09/11 03:09:00;;;;;;;17.13;11.88;;;;;;;15.69;96.11;100212.28;4972778;28;20066;-64
2021/09/11 03:11:45;;;;;;;12.82;8.93;;;;;;;15.70;95.89;100203.97;4972161;28;20078;-63
2021/09/11 03:14:30;;;;;;;12.80;9.05;;;;;;;15.70;95.63;100203.97;4972261;28;20184;-63
2021/09/11 03:17:15;;;;;;;10.57;8.00;;;;;;;15.71;95.60;100202.13;4971877;28;20062;-64
2021/09/11 03:20:02;;;;;;;20.90;10.52;;;;;;;15.71;95.17;100207.53;4972177;28;20093;-65
2021/09/11 03:22:47;;;;;;;11.85;8.88;;;;;;;15.65;95.13;100205.56;4972143;28;20552;-63
2021/09/11 03:25:32;;;;;;;17.73;12.68;;;;;;;15.60;95.30;100199.81;4971920;28;20132;-63
2021/09/11 03:28:18;;;;;;;17.77;12.48;;;;;;;15.56;95.75;100202.00;4971628;28;20189;-63
2021/09/11 03:31:03;;;;;;;13.00;10.00;;;;;;;15.58;96.07;100191.00;4972195;28;20061;-66
2021/09/11 03:33:48;;;;;;;15.30;9.82;;;;;;;15.60;96.07;100189.00;4972313;28;20058;-66
2021/09/11 03:36:34;;;;;;;13.23;10.48;;;;;;;15.66;95.73;100193.72;4971776;28;20420;-63
2021/09/11 03:39:19;;;;;;;12.00;9.20;;;;;;;15.71;95.64;100194.00;4972015;28;20065;-64
2021/09/11 03:42:05;;;;;;;14.57;9.97;;;;;;;15.77;95.05;100202.25;4971891;28;20062;-63
2021/09/11 03:44:50;;;;;;;11.25;8.98;;;;;;;15.86;94.73;100203.03;4971859;28;20066;-64
2021/09/11 03:47:35;;;;;;;18.97;11.93;;;;;;;15.89;94.84;100199.97;4971235;28;20065;-66
2021/09/11 03:50:21;;;;;;;11.02;8.98;;;;;;;15.93;94.61;100206.72;4972139;28;20301;-64
2021/09/11 03:53:07;;;;;;;10.83;8.27;;;;;;;15.94;94.20;100199.44;4971153;28;20054;-64
2021/09/11 03:55:52;;;;;;;10.02;7.43;;;;;;;15.94;94.31;100197.56;4971671;28;20058;-63
2021/09/11 03:58:37;;;;;;;17.33;12.67;;;;;;;16.24;93.12;100200.41;4971680;28;20150;-65
2021/09/11 04:01:22;;;;;;;11.23;8.77;;;;;;;16.12;93.10;100196.44;4971678;28;20190;-64
2021/09/11 04:04:07;;;;;;;13.27;8.95;;;;;;;16.17;92.91;100199.44;4971727;28;20330;-64
2021/09/11 04:06:53;;;;;;;15.07;10.85;;;;;;;16.20;92.81;100197.19;4971618;28;20082;-63
2021/09/11 04:09:39;;;;;;;19.88;12.57;;;;;;;16.35;91.81;100197.25;4971865;28;20556;-64
2021/09/11 04:12:25;;;;;;;15.07;10.07;;;;;;;16.38;91.58;100196.88;4971336;28;20058;-63
2021/09/11 04:15:10;;;;;;;18.48;10.85;;;;;;;16.37;91.74;100204.19;4971741;28;20640;-64
2021/09/11 04:17:55;;;;;;;13.30;10.20;;;;;;;16.21;92.23;100195.31;4971454;28;20072;-65
2021/09/11 04:20:41;;;;;;;14.07;10.77;;;;;;;16.16;92.75;100201.31;4971635;28;20551;-65
2021/09/11 04:23:26;;;;;;;13.85;10.57;;;;;;;16.14;92.63;100210.63;4971767;28;20181;-64
2021/09/11 04:26:12;;;;;;;13.23;9.80;;;;;;;16.14;92.66;100207.94;4971218;28;20125;-65
2021/09/11 04:28:58;;;;;;;12.65;9.15;;;;;;;16.16;92.73;100203.16;4971571;28;20436;-64
2021/09/11 04:31:42;;;;;;;19.60;11.48;;;;;;;16.34;92.10;100209.13;4971499;28;20065;-64
2021/09/11 04:34:28;;;;;;;13.30;9.53;;;;;;;16.21;92.42;100219.69;4971558;28;20074;-65
2021/09/11 04:37:12;;;;;;;16.48;11.57;;;;;;;16.24;92.20;100217.50;4970946;28;20297;-66
2021/09/11 04:39:59;;;;;;;13.13;10.00;;;;;;;16.24;92.71;100222.06;4971999;28;20101;-63
2021/09/11 04:42:45;;;;;;;14.75;9.70;;;;;;;16.23;92.63;100228.50;4975136;28;20057;-65
2021/09/11 04:45:30;;;;;;;17.10;11.35;;;;;;;16.19;93.11;100227.16;4975139;28;20092;-65
2021/09/11 04:48:16;;;;;;;13.18;9.93;;;;;;;16.26;92.38;100236.25;4974876;28;20062;-64
2021/09/11 04:51:01;;;;;;;15.18;12.10;;;;;;;16.21;92.90;100234.06;4974551;28;20450;-64
2021/09/11 04:53:48;;;;;;;16.52;11.10;;;;;;;16.20;93.05;100234.25;4974542;28;20560;-64
2021/09/11 04:56:33;;;;;;;;;;;;;;;16.24;92.78;100230.19;4974602;28;20124;-65
2021/09/11 04:59:19;;;;;;;16.40;10.40;;;;;;;16.30;92.43;100224.03;4974732;28;19928;-63
2021/09/11 05:02:04;;;;;;;16.15;11.40;;;;;;;16.42;92.07;100233.41;4974547;28;20133;-63
2021/09/11 05:04:49;;;;;;;14.82;11.07;;;;;;;16.44;91.96;100231.34;4974492;28;20058;-64
2021/09/11 05:07:34;;;;;;;11.32;8.70;;;;;;;16.49;91.97;100238.97;4974094;28;20055;-64
2021/09/11 05:10:19;;;;;;;18.15;10.75;;;;;;;16.54;91.82;100237.38;4974382;28;20215;-65
2021/09/11 05:13:04;;;;;;;13.57;10.57;;;;;;;16.75;90.57;100230.44;4974360;28;20234;-64
2021/09/11 05:15:50;;;;;;;14.88;10.23;;;;;;;16.90;89.16;100237.56;4973956;28;20070;-64
2021/09/11 05:18:36;;;;;;;14.02;10.32;;;;;;;16.93;89.40;100244.50;4973894;28;20077;-64
2021/09/11 05:21:21;;;;;;;14.10;9.65;;;;;;;16.95;89.59;100239.75;4974284;28;20170;-63
2021/09/11 05:24:06;;;;;;;13.23;9.50;;;;;;;16.99;89.80;100240.19;4974450;28;20551;-64
2021/09/11 05:26:51;;;;;;;13.13;9.07;;;;;;;17.08;89.11;100239.94;4973820;28;20141;-64
2021/09/11 05:29:36;;;;;;;12.55;9.25;;;;;;;17.10;89.48;100239.75;4974252;28;20105;-65
2021/09/11 05:32:22;;;;;;;12.67;9.53;;;;;;;17.11;89.48;100239.56;4974368;28;20073;-65
2021/09/11 05:35:08;;;;;;;16.48;8.95;;;;;;;17.03;90.26;100247.75;4973984;28;20066;-64
2021/09/11 05:37:53;;;;;;;13.65;10.10;;;;;;;17.00;90.54;100250.84;4974103;28;20508;-64
2021/09/11 05:40:38;;;;;;;16.07;10.93;;;;;;;17.07;89.34;100250.97;4974361;28;20058;-64
2021/09/11 05:43:24;;;;;;;16.30;9.88;;;;;;;16.95;90.78;100256.00;4974137;28;20057;-63
2021/09/11 05:46:09;;;;;;;;;;;;;;;16.88;90.60;100258.59;4974310;28;20054;-64
2021/09/11 05:48:55;;;;;;;14.13;10.38;;;;;;;16.81;91.64;100264.94;4973591;28;19928;-63
2021/09/11 05:51:40;;;;;;;13.98;10.30;;;;;;;16.81;91.59;100264.94;4972704;28;20066;-63
2021/09/11 05:54:25;;;;;;;16.70;10.57;;;;;;;16.78;91.97;100265.31;4973933;28;20624;-64
2021/09/11 05:57:10;;;;;;;17.83;11.75;;;;;;;16.75;92.48;100261.09;4973372;28;20519;-64
2021/09/11 05:59:56;;;;;;;16.58;11.88;;;;;;;16.80;91.70;100269.50;4973776;28;20129;-64
2021/09/11 06:02:41;;;;;;;;;;;;;;;16.78;92.06;100270.72;4968309;28;20053;-63
2021/09/11 06:05:27;;;;;;;17.55;11.73;;;;;;;16.76;92.43;100265.50;4940503;29;20450;-64
2021/09/11 06:08:12;;;;;;;13.95;10.05;;;;;;;16.76;92.09;100270.06;4954246;29;20557;-63
2021/09/11 06:10:57;;;;;;;14.25;10.95;;;;;;;16.75;92.92;100265.69;4934650;29;20115;-63
2021/09/11 06:13:42;;;;;;;15.90;10.83;;;;;;;16.74;92.62;100274.84;4934741;29;20142;-63
2021/09/11 06:16:27;;;;;;;14.77;10.65;;;;;;;16.77;92.11;100277.16;4934282;29;20295;-64
2021/09/11 06:19:12;;;;;;;16.97;12.30;;;;;;;16.81;92.09;100275.78;4934576;29;20054;-64
2021/09/11 06:21:58;;;;;;;16.10;12.13;;;;;;;16.78;92.36;100277.00;4942101;29;20516;-63
2021/09/11 06:24:43;;;;;;;13.30;10.60;;;;;;;16.89;91.71;100278.41;4953701;29;20058;-64
2021/09/11 06:27:28;;;;;;;19.33;12.27;;;;;;;16.89;92.10;100283.84;4952773;29;20069;-63
2021/09/11 06:30:14;;;;;;;14.48;10.80;;;;;;;16.97;91.53;100270.22;4953805;29;20073;-64
2021/09/11 06:32:59;;;;;;;17.48;11.80;;;;;;;17.05;91.39;100267.44;4953392;29;20186;-64
2021/09/11 06:35:44;;;;;;;16.50;11.25;;;;;;;17.12;91.53;100278.34;4953205;29;20066;-63
2021/09/11 06:38:30;;;;;;;16.08;11.82;;;;;;;17.23;91.09;100273.31;4953632;29;20122;-64
2021/09/11 06:41:15;;;;;;;19.00;12.57;;;;;;;17.32;91.43;100275.94;4953430;29;20078;-64
2021/09/11 06:44:00;;;;;;;16.80;11.60;;;;;;;17.42;91.35;100279.22;4953211;29;20186;-64
2021/09/11 06:46:45;;;;;;;19.20;14.13;;;;;;;17.50;91.24;100282.66;4952879;29;20509;-64
2021/09/11 06:49:30;;;;;;;20.17;12.27;;;;;;;17.59;91.02;100285.28;4953149;29;20062;-64
2021/09/11 06:52:15;;;;;;;17.30;12.32;;;;;;;17.73;90.46;100276.31;4952719;29;20058;-63
2021/09/11 06:55:01;;;;;;;18.83;12.75;;;;;;;17.79;89.72;100281.81;4953242;29;20073;-64
2021/09/11 06:57:46;;;;;;;18.90;12.13;;;;;;;18.02;89.36;100280.84;4952508;29;20436;-64
2021/09/11 07:00:31;;;;;;;16.33;11.63;;;;;;;18.16;88.59;100285.38;4952799;29;20139;-64
2021/09/11 07:03:16;;;;;;;15.73;11.68;;;;;;;18.33;87.11;100281.38;4952566;28;20198;-63
2021/09/11 07:06:03;;;;;;;15.18;10.85;;;;;;;18.49;86.27;100280.28;4952588;29;20074;-64
2021/09/11 07:08:48;;;;;;;17.10;12.05;;;;;;;18.31;87.23;100286.16;4952859;29;20065;-65
2021/09/11 07:11:34;;;;;;;19.10;12.77;;;;;;;18.55;86.39;100286.81;4953034;29;20061;-65
2021/09/11 07:14:19;;;;;;;19.65;13.43;;;;;;;18.65;85.48;100284.66;4935941;29;20054;-63
2021/09/11 07:17:04;;;;;;;18.27;12.60;;;;;;;18.64;85.50;100283.81;4933814;29;20373;-64
2021/09/11 07:19:50;;;;;;;17.13;12.13;;;;;;;18.75;85.93;100287.03;4933126;29;20062;-64
2021/09/11 07:22:34;;;;;;;13.30;10.43;;;;;;;18.97;83.78;100286.81;4933802;29;20075;-64
2021/09/11 07:25:19;;;;;;;20.83;12.17;;;;;;;18.99;84.28;100290.16;4933591;29;20058;-65
2021/09/11 07:28:06;;;;;;;12.90;9.95;;;;;;;19.15;83.92;100293.59;4933734;29;20298;-64
2021/09/11 07:30:51;;;;;;;13.77;10.30;;;;;;;19.26;83.35;100301.22;4933524;29;20422;-63
2021/09/11 07:33:36;;;;;;;12.65;10.07;;;;;;;19.34;83.88;100303.78;4933603;29;20214;-66
2021/09/11 07:36:21;;;;;;;16.95;11.07;;;;;;;19.33;82.85;100302.13;4932968;29;20501;-65
2021/09/11 07:39:07;;;;;;;12.25;9.32;;;;;;;19.49;83.65;100307.22;4933498;29;20110;-65
2021/09/11 07:41:52;;;;;;;18.83;11.13;;;;;;;19.33;82.89;100310.28;4933350;29;20115;-64
2021/09/11 07:44:38;;;;;;;15.13;10.63;;;;;;;19.45;83.18;100316.00;4933995;29;20142;-66
2021/09/11 07:47:23;;;;;;;15.45;10.65;;;;;;;19.41;83.51;100320.16;4933910;29;20058;-65
2021/09/11 07:50:10;;;;;;;15.10;10.33;;;;;;;19.54;83.60;100312.94;4933049;29;20058;-64
2021/09/11 07:52:55;;;;;;;12.75;9.45;;;;;;;19.67;83.45;100314.06;4933176;29;20119;-64
2021/09/11 07:55:40;;;;;;;15.07;10.43;;;;;;;19.67;82.26;100314.91;4932912;29;20102;-64
2021/09/11 08:01:03;;;;;;;16.55;9.23;;;;;;;19.96;81.67;100316.50;5013381;28;20049;-66
2021/09/11 08:03:49;;;;;;;15.48;9.40;;;;;;;20.00;80.69;100309.59;5011037;28;20566;-66
2021/09/11 08:06:34;;;;;;;16.10;9.00;;;;;;;20.19;79.49;100324.34;5010665;28;20415;-62
2021/09/11 08:09:19;;;;;;;14.73;8.35;;;;;;;20.11;79.96;100311.72;5010719;28;20562;-65
2021/09/11 08:12:04;;;;;;;13.80;7.93;;;;;;;20.25;80.03;100318.09;5010810;28;20143;-64
2021/09/11 08:14:49;;;;;;;9.98;6.50;;;;;;;20.48;78.81;100315.00;5011325;28;20049;-66
2021/09/11 08:17:36;;;;;;;11.18;6.93;;;;;;;20.46;78.48;100313.53;5013712;28;20053;-63
2021/09/11 08:20:21;;;;;;;9.88;7.03;;;;;;;20.76;76.76;100314.00;5014374;28;20052;-66
2021/09/11 08:23:07;;;;;;;9.48;6.65;;;;;;;21.05;76.26;100313.56;5014516;28;20209;-65
2021/09/11 08:25:52;;;;;;;9.07;6.78;;;;;;;20.90;75.50;100315.69;5013928;28;20203;-63
2021/09/11 08:28:37;;;;;;;7.53;5.85;;;;;;;21.05;75.51;100316.31;5014475;28;20108;-62
2021/09/11 08:31:23;;;;;;;11.20;7.60;;;;;;;21.25;74.30;100325.34;5014417;28;20056;-64
2021/09/11 08:34:09;;;;;;;9.75;7.65;;;;;;;21.47;74.04;100312.31;5014009;28;20545;-63
2021/09/11 08:36:54;;;;;;;9.75;7.55;;;;;;;21.49;71.60;100310.19;5014097;28;20061;-64
2021/09/11 08:39:39;;;;;;;10.37;8.53;;;;;;;21.79;72.21;100313.28;5014663;28;20349;-65
2021/09/11 08:42:25;;;;;;;13.73;9.13;;;;;;;21.75;70.45;100314.72;5014095;28;20069;-65
2021/09/11 08:45:12;;;;;;;;;;;;;;;22.04;70.53;100318.00;5014466;28;20065;-65
2021/09/11 08:47:57;;;;;;;7.25;5.38;;;;;;;22.36;69.42;100322.47;5013308;28;19933;-66
2021/09/11 08:50:43;;;;;;;7.90;6.15;;;;;;;22.85;67.55;100318.19;5014048;28;20582;-64
2021/09/11 08:53:28;;;;;;;8.23;5.25;;;;;;;23.24;66.64;100329.88;5013937;28;20064;-67
2021/09/11 08:56:13;;;;;;;7.60;5.93;;;;;;;23.34;65.33;100332.94;5013779;28;20103;-62
2021/09/11 08:59:06;;;;;;;7.43;6.17;;;;;;;23.07;65.30;100335.06;5013592;28;20523;-63
2021/09/11 09:02:04;;;;;;;8.52;5.55;;;;;;;22.94;66.50;100327.78;5013557;28;20647;-64
2021/09/11 09:04:51;;;;;;;6.13;4.78;;;;;;;23.11;65.12;100324.50;5013661;28;20595;-65
2021/09/11 09:07:39;;;;;;;4.95;4.05;;;;;;;23.29;65.62;100330.00;5012860;28;20411;-65
2021/09/11 09:10:25;;;;;;;4.63;3.70;;;;;;;23.49;63.21;100333.41;5013572;28;20053;-64
2021/09/11 09:13:10;;;;;;;8.20;4.50;;;;;;;23.50;63.20;100329.59;5013771;28;20115;-65
2021/09/11 09:16:13;;;;;;;6.75;4.35;;;;;;;23.34;64.97;100331.03;5012609;28;20072;-64
2021/09/11 09:18:58;;;;;;;7.30;3.83;;;;;;;23.60;63.53;100338.16;5013326;28;20468;-68
2021/09/11 09:21:45;;;;;;;6.35;4.90;;;;;;;23.69;62.21;100335.13;5013200;28;20056;-64
2021/09/11 09:24:34;;;;;;;8.13;5.25;;;;;;;23.60;62.58;100335.44;5013179;28;20061;-65
2021/09/11 09:27:20;;;;;;;6.78;4.47;;;;;;;23.81;62.85;100336.06;5012661;28;20065;-63
2021/09/11 09:30:07;;;;;;;6.47;4.60;;;;;;;23.75;62.01;100342.44;5012738;28;20188;-65
2021/09/11 09:32:53;;;;;;;5.20;4.32;;;;;;;23.72;63.56;100334.66;5013224;28;20157;-66
2021/09/11 09:35:37;;;;;;;7.40;5.97;;;;;;;23.50;62.91;100340.56;5012899;28;20052;-63
2021/09/11 09:38:22;;;;;;;5.85;4.85;;;;;;;23.26;64.96;100338.69;5013119;28;20064;-65
2021/09/11 09:41:13;;;;;;;5.30;4.70;;;;;;;23.50;63.75;100339.72;5012366;28;20331;-66
2021/09/11 09:43:58;;;;;;;6.68;5.20;;;;;;;23.46;65.68;100335.75;5012876;28;20395;-64
2021/09/11 09:46:45;;;;;;;7.18;5.90;;;;;;;23.13;64.88;100342.38;5012360;28;20181;-64
2021/09/11 09:49:31;;;;;;;6.97;4.95;;;;;;;23.26;64.93;100333.22;5012591;28;20069;-64
2021/09/11 09:52:16;;;;;;;6.40;5.50;;;;;;;22.87;64.91;100324.28;5013020;28;20399;-64
2021/09/11 09:55:02;;;;;;;7.68;5.47;;;;;;;22.98;64.43;100330.94;5012679;28;20414;-59
2021/09/11 09:57:48;;;;;;;8.25;5.60;;;;;;;23.18;64.17;100325.28;5011624;28;20056;-60
2021/09/11 10:00:33;;;;;;;7.97;5.43;;;;;;;23.68;61.89;100323.34;5012615;28;20060;-60
2021/09/11 10:03:18;;;;;;;5.63;5.03;;;;;;;24.04;61.99;100325.22;5012210;28;20061;-60
2021/09/11 10:06:14;;;;;;;5.63;4.88;;;;;;;24.06;60.09;100319.50;5011697;28;20116;-58
2021/09/11 10:09:05;;;;;;;6.38;4.00;;;;;;;24.70;58.28;100324.31;5012384;28;20135;-61
2021/09/11 10:11:51;;;;;;;7.25;4.30;;;;;;;24.16;58.20;100309.66;5011987;28;20084;-60
2021/09/11 10:14:37;;;;;;;5.50;3.50;;;;;;;24.85;58.22;100303.81;5012173;28;20538;-62
2021/09/11 10:17:32;;;;;;;7.07;3.67;;;;;;;25.14;57.89;100300.19;5011768;28;20060;-62
2021/09/11 10:20:18;;;;;;;4.10;3.08;;;;;;;25.39;54.27;100304.59;5012157;28;20518;-56
2021/09/11 10:23:04;;;;;;;15.50;3.28;;;;;;;24.48;56.15;100304.78;5012010;28;20160;-65
2021/09/11 10:25:49;;;;;;;4.30;3.10;;;;;;;24.53;57.19;100304.09;5011774;28;20061;-59
2021/09/11 10:28:33;;;;;;;9.50;3.60;;;;;;;24.54;57.06;100302.19;5011715;28;20143;-60
2021/09/11 10:31:19;;;;;;;4.50;3.03;;;;;;;24.19;58.70;100300.13;5011857;28;20056;-58
2021/09/11 10:34:05;;;;;;;6.68;3.25;;;;;;;23.93;59.79;100309.56;5011802;28;20514;-59
2021/09/11 10:36:50;;;;;;;5.75;3.83;;;;;;;23.70;61.43;100301.19;5011444;28;20188;-61
2021/09/11 10:39:35;;;;;;;5.90;4.13;;;;;;;23.18;65.93;100303.38;5011121;28;20711;-61
2021/09/11 10:42:19;;;;;;;10.15;4.30;;;;;;;22.46;69.43;100313.78;5011514;28;20057;-60
2021/09/11 10:45:05;;;;;;;6.88;4.65;;;;;;;21.76;71.96;100300.03;5011640;28;20455;-62
2021/09/11 10:47:51;;;;;;;5.68;4.63;;;;;;;21.40;73.51;100299.72;5011295;28;20136;-61
2021/09/11 10:50:38;;;;;;;6.22;4.88;;;;;;;21.18;74.67;100304.53;5011431;28;20535;-59
2021/09/11 10:53:25;;;;;;;7.25;5.20;;;;;;;21.57;75.00;100309.97;5012212;28;20060;-59
2021/09/11 10:56:23;;;;;;;7.97;5.43;;;;;;;21.98;70.25;100297.84;5010823;28;20143;-61
2021/09/11 10:59:39;;;;;;;7.10;4.85;;;;;;;22.13;69.93;100295.69;5011132;28;20080;-62
2021/09/11 11:02:38;;;;;;;6.40;4.20;;;;;;;22.68;67.86;100290.50;5011316;28;20538;-59
2021/09/11 11:05:24;;;;;;;5.10;4.60;;;;;;;23.15;64.32;100292.88;5011101;28;20116;-62
2021/09/11 11:08:09;;;;;;;5.50;3.92;;;;;;;23.71;62.30;100292.72;5011359;28;20060;-61
2021/09/11 11:10:55;;;;;;;5.82;3.67;;;;;;;24.27;58.38;100285.25;5011398;28;20203;-61
2021/09/11 11:13:40;;;;;;;5.47;4.13;;;;;;;24.81;56.66;100278.75;5011169;28;20522;-60
2021/09/11 11:16:44;;;;;;;4.82;3.03;;;;;;;24.60;56.58;100274.66;5010819;28;20077;-61
2021/09/11 11:19:31;;;;;;;5.50;4.10;;;;;;;24.20;57.47;100280.69;5011550;28;20064;-57
2021/09/11 11:22:24;;;;;;;5.13;4.00;;;;;;;23.59;61.12;100284.44;5011096;28;20104;-59
2021/09/11 11:25:12;;;;;;;5.95;3.20;;;;;;;23.53;62.37;100285.31;5011267;28;20427;-62
2021/09/11 11:27:57;;;;;;;5.80;3.30;;;;;;;23.31;60.99;100286.81;5019632;28;20095;-62
2021/09/11 11:30:43;;;;;;;6.00;4.28;;;;;;;23.12;61.27;100283.22;5050207;28;20060;-62
2021/09/11 11:33:27;;;;;;;4.32;3.55;;;;;;;23.12;62.71;100271.44;5032816;28;20514;-61
2021/09/11 11:36:12;;;;;;;4.40;3.50;;;;;;;23.56;61.82;100268.44;5030560;28;20053;-60
2021/09/11 11:39:18;;;;;;;5.05;3.83;;;;;;;24.02;58.23;100260.72;5030894;28;20369;-58
2021/09/11 11:42:06;;;;;;;7.53;3.90;;;;;;;24.47;61.47;100252.91;5030461;28;20057;-60
2021/09/11 11:44:54;;;;;;;4.35;3.53;;;;;;;24.81;59.16;100259.53;5030673;28;20064;-62
2021/09/11 11:47:48;;;;;;;7.05;3.97;;;;;;;24.73;55.86;100252.47;5030223;28;20052;-61
2021/09/11 11:50:35;;;;;;;6.38;3.85;;;;;;;25.03;54.59;100251.59;5034048;28;20154;-60
2021/09/11 11:53:20;;;;;;;5.72;3.85;;;;;;;24.98;53.08;100265.16;5034697;28;20060;-59
2021/09/11 11:56:07;;;;;;;5.00;3.78;;;;;;;25.14;52.93;100255.41;5034806;28;20387;-60
2021/09/11 11:58:59;;;;;;;3.85;3.28;;;;;;;25.41;51.80;100245.59;5034158;28;20103;-61
2021/09/11 12:01:44;;;;;;;5.60;3.33;;;;;;;26.11;50.04;100236.31;5034538;28;20064;-61
2021/09/11 12:04:29;;;;;;;4.32;3.10;;;;;;;26.39;50.91;100235.47;5034493;28;20104;-61
2021/09/11 12:07:26;;;;;;;5.13;3.63;;;;;;;26.67;50.09;100229.09;5033619;28;20052;-62
2021/09/11 12:10:16;;;;;;;4.32;3.10;;;;;;;25.98;51.80;100231.13;5034578;28;20191;-62
2021/09/11 12:13:07;;;;;;;5.40;3.65;;;;;;;25.70;52.82;100241.03;5034202;28;20524;-59
2021/09/11 12:15:52;;;;;;;4.68;3.33;;;;;;;25.43;52.50;100237.09;5033840;28;20533;-60
2021/09/11 12:18:37;;;;;;;6.05;2.88;;;;;;;25.24;52.91;100236.44;5034242;28;20063;-62
2021/09/11 12:21:22;;;;;;;4.40;3.28;;;;;;;24.76;54.62;100235.56;5032446;28;20056;-60
2021/09/11 12:24:21;;;;;;;3.75;2.97;;;;;;;24.44;55.34;100235.03;5033987;28;20057;-63
2021/09/11 12:27:10;;;;;;;4.20;3.67;;;;;;;23.96;58.31;100235.06;5033870;28;20052;-61
2021/09/11 12:30:03;;;;;;;4.75;3.67;;;;;;;23.62;60.30;100242.88;5033813;28;20061;-61
2021/09/11 12:32:49;;;;;;;7.03;5.20;;;;;;;22.92;65.84;100264.22;5034165;28;20154;-61
2021/09/11 12:35:35;;;;;;;6.70;5.43;;;;;;;21.82;71.63;100250.00;5033498;28;20095;-59
2021/09/11 12:38:20;;;;;;;6.53;5.75;;;;;;;20.67;82.78;100270.56;5033960;28;20088;-59
2021/09/11 12:41:05;;;;;;;10.80;6.57;;;;;;;20.08;85.74;100273.16;5034322;28;20183;-60
2021/09/11 12:43:50;;;;;;;10.53;6.27;;;;;;;19.63;87.34;100280.09;5033839;28;20143;-60
2021/09/11 12:46:39;;;;;;;11.13;6.78;;;;;;;19.28;87.42;100278.22;5032982;28;20295;-58